createdAt,value
2024-01-15T00:02:26.257Z,18.67
2024-01-15T00:04:58.866Z,16.80
2024-01-15T00:07:30.930Z,16.27
2024-01-15T00:10:00.780Z,15.57
2024-01-15T00:12:30.417Z,18.53
2024-01-15T00:15:00.307Z,14.93
2024-01-15T00:17:29.760Z,18.57
2024-01-15T00:19:59.032Z,14.00
2024-01-15T00:22:28.893Z,16.47
2024-01-15T00:25:00.609Z,17.80
2024-01-15T00:27:29.669Z,19.93
2024-01-15T00:30:04.302Z,20.40
2024-01-15T00:32:35.017Z,16.17
2024-01-15T00:35:08.276Z,18.43
2024-01-15T00:37:37.660Z,13.30
2024-01-15T00:40:12.620Z,15.97
2024-01-15T00:42:41.519Z,16.33
2024-01-15T00:45:12.831Z,14.83
2024-01-15T00:47:43.552Z,14.60
2024-01-15T00:50:17.125Z,19.40
2024-01-15T00:52:49.063Z,19.75
2024-01-15T00:55:32.708Z,18.20
2024-01-15T00:58:02.064Z,15.67
2024-01-15T01:00:31.712Z,17.70
2024-01-15T01:03:04.392Z,17.97
2024-01-15T01:05:37.831Z,17.13
2024-01-15T01:08:09.516Z,17.47
2024-01-15T01:10:38.379Z,17.00
2024-01-15T01:13:08.764Z,20.00
2024-01-15T01:15:42.588Z,21.87
2024-01-15T01:18:11.992Z,17.00
2024-01-15T01:20:41.328Z,19.10
2024-01-15T01:23:14.708Z,18.13
2024-01-15T01:25:43.723Z,20.27
2024-01-15T01:28:13.064Z,20.23
2024-01-15T01:30:42.133Z,19.73
2024-01-15T01:33:14.917Z,20.70
2024-01-15T01:35:44.336Z,19.70
2024-01-15T01:38:13.528Z,19.10
2024-01-15T01:40:42.333Z,20.97
2024-01-15T01:43:13.370Z,19.90
2024-01-15T01:45:42.444Z,20.47
2024-01-15T01:48:12.383Z,20.80
2024-01-15T01:50:41.838Z,19.73
2024-01-15T01:53:11.454Z,17.97
2024-01-15T01:55:45.208Z,22.33
2024-01-15T01:58:18.037Z,20.15
2024-01-15T02:00:50.626Z,18.37
2024-01-15T02:03:23.515Z,19.77
2024-01-15T02:05:53.631Z,21.40
2024-01-15T02:08:28.116Z,20.20
2024-01-15T02:10:57.214Z,22.03
2024-01-15T02:13:26.238Z,19.77
2024-01-15T02:15:54.302Z,24.33
2024-01-15T02:18:23.828Z,20.90
2024-01-15T02:20:57.406Z,20.47
2024-01-15T02:23:27.123Z,19.30
2024-01-15T02:25:58.560Z,18.10
2024-01-15T02:28:30.463Z,20.33
2024-01-15T02:30:59.752Z,20.87
2024-01-15T02:33:29.213Z,19.57
2024-01-15T02:35:59.052Z,23.20
2024-01-15T02:38:28.005Z,21.77
2024-01-15T02:40:58.438Z,20.45
2024-01-15T02:43:29.933Z,21.23
2024-01-15T02:45:59.240Z,20.40
2024-01-15T02:48:28.528Z,20.47
2024-01-15T02:51:03.630Z,19.83
2024-01-15T02:53:32.669Z,21.23
2024-01-15T02:56:04.600Z,20.30
2024-01-15T02:58:36.313Z,18.60
2024-01-15T03:01:05.524Z,20.03
2024-01-15T03:03:34.962Z,21.23
2024-01-15T03:06:10.769Z,18.73
2024-01-15T03:08:39.944Z,20.73
2024-01-15T03:11:08.839Z,21.70
2024-01-15T03:13:41.170Z,21.47
2024-01-15T03:16:21.812Z,23.57
2024-01-15T03:18:51.055Z,24.33
2024-01-15T03:21:24.642Z,26.03
2024-01-15T03:23:57.116Z,22.07
2024-01-15T03:26:26.120Z,22.73
2024-01-15T03:28:55.180Z,25.00
2024-01-15T03:31:24.197Z,21.37
2024-01-15T03:33:54.852Z,23.40
2024-01-15T03:36:27.173Z,22.13
2024-01-15T03:38:58.062Z,25.60
2024-01-15T03:41:27.133Z,26.97
2024-01-15T03:43:59.694Z,26.60
2024-01-15T03:46:31.817Z,24.30
2024-01-15T03:49:00.802Z,22.00
2024-01-15T03:51:30.420Z,22.23
2024-01-15T03:54:01.515Z,22.47
2024-01-15T03:56:31.512Z,22.47
2024-01-15T03:59:00.745Z,23.20
2024-01-15T04:01:30.389Z,22.43
2024-01-15T04:03:59.382Z,22.03
2024-01-15T04:06:28.906Z,21.70
2024-01-15T04:08:58.532Z,21.40
2024-01-15T04:11:27.419Z,19.60
2024-01-15T04:13:58.359Z,18.93
2024-01-15T04:16:27.665Z,18.07
2024-01-15T04:18:57.215Z,18.63
2024-01-15T04:21:28.480Z,17.80
2024-01-15T04:23:57.847Z,20.43
2024-01-15T04:26:34.789Z,18.57
2024-01-15T04:29:03.794Z,18.80
2024-01-15T04:31:32.723Z,18.00
2024-01-15T04:34:01.791Z,18.90
2024-01-15T04:36:31.496Z,18.53
2024-01-15T04:39:03.761Z,20.23
2024-01-15T04:41:35.671Z,18.60
2024-01-15T04:44:04.797Z,17.97
2024-01-15T04:46:36.911Z,17.93
2024-01-15T04:49:16.606Z,16.03
2024-01-15T04:51:47.103Z,19.20
2024-01-15T04:54:25.609Z,14.47
2024-01-15T04:56:54.968Z,15.97
2024-01-15T04:59:24.526Z,16.43
2024-01-15T05:01:56.943Z,16.37
2024-01-15T05:04:32.231Z,17.53
2024-01-15T05:07:01.353Z,16.55
2024-01-15T05:09:32.867Z,18.87
2024-01-15T05:12:02.466Z,19.13
2024-01-15T05:14:34.569Z,20.03
2024-01-15T05:17:07.429Z,19.03
2024-01-15T05:22:16.285Z,16.00
2024-01-15T05:24:50.734Z,18.53
2024-01-15T05:27:22.138Z,17.50
2024-01-15T05:32:23.560Z,16.30
2024-01-15T05:34:54.747Z,17.37
2024-01-15T05:37:24.989Z,15.90
2024-01-15T05:39:57.625Z,17.23
2024-01-15T05:42:27.308Z,14.63
2024-01-15T05:44:56.723Z,14.93
2024-01-15T05:47:26.095Z,14.20
2024-01-15T05:50:03.315Z,14.43
2024-01-15T05:52:33.643Z,16.30
2024-01-15T05:55:06.325Z,14.03
2024-01-15T05:57:35.362Z,13.67
2024-01-15T06:00:05.731Z,18.53
2024-01-15T06:02:34.932Z,14.60
2024-01-15T06:05:05.020Z,15.33
2024-01-15T06:07:35.981Z,14.90
2024-01-15T06:10:06.293Z,17.10
2024-01-15T06:12:35.267Z,16.43
2024-01-15T06:15:07.682Z,16.83
2024-01-15T06:17:36.814Z,16.47
2024-01-15T06:20:10.548Z,23.60
2024-01-15T06:22:40.062Z,16.40
2024-01-15T06:25:13.269Z,18.53
2024-01-15T06:27:42.523Z,16.00
2024-01-15T06:30:15.999Z,15.70
2024-01-15T06:32:46.936Z,16.37
2024-01-15T06:35:16.864Z,16.30
2024-01-15T06:37:48.776Z,16.93
2024-01-15T06:40:19.600Z,16.47
2024-01-15T06:42:53.516Z,17.17
2024-01-15T06:45:22.596Z,16.60
2024-01-15T06:47:54.631Z,14.57
2024-01-15T06:50:24.881Z,16.40
2024-01-15T06:52:54.188Z,18.53
2024-01-15T06:55:26.243Z,17.90
2024-01-15T06:57:55.577Z,15.63
2024-01-15T07:00:25.483Z,16.43
2024-01-15T07:02:57.614Z,16.27
2024-01-15T07:05:27.006Z,18.27
2024-01-15T07:07:56.302Z,17.47
2024-01-15T07:10:26.963Z,17.25
2024-01-15T07:12:58.293Z,17.13
2024-01-15T07:15:30.668Z,19.43
2024-01-15T07:18:00.111Z,16.43
2024-01-15T07:20:33.131Z,16.43
2024-01-15T07:23:03.196Z,20.17
2024-01-15T07:25:32.533Z,17.20
2024-01-15T07:28:02.851Z,19.70
2024-01-15T07:30:32.010Z,18.37
2024-01-15T07:33:01.706Z,17.97
2024-01-15T07:35:33.623Z,19.03
2024-01-15T07:38:03.313Z,18.03
2024-01-15T07:40:32.827Z,16.93
2024-01-15T07:43:03.638Z,18.90
2024-01-15T07:45:33.154Z,15.23
2024-01-15T07:48:06.641Z,19.03
2024-01-15T07:50:35.973Z,16.73
2024-01-15T07:53:06.170Z,18.63
2024-01-15T07:55:45.965Z,18.50
2024-01-15T07:58:17.708Z,15.30
2024-01-15T08:00:47.186Z,17.47
2024-01-15T08:03:24.337Z,15.07
2024-01-15T08:05:55.104Z,16.15
2024-01-15T08:08:27.337Z,13.47
2024-01-15T08:11:01.491Z,15.57
2024-01-15T08:13:33.465Z,20.60
2024-01-15T08:16:03.580Z,25.97
2024-01-15T08:18:33.136Z,15.93
2024-01-15T08:21:03.514Z,13.53
2024-01-15T08:23:32.792Z,13.20
2024-01-15T08:26:01.988Z,17.07
2024-01-15T08:28:31.932Z,15.00
2024-01-15T08:31:01.479Z,14.90
2024-01-15T08:33:30.935Z,17.27
2024-01-15T08:36:00.155Z,14.10
2024-01-15T08:38:31.990Z,17.47
2024-01-15T08:41:02.401Z,16.60
2024-01-15T08:43:32.111Z,18.80
2024-01-15T08:46:07.296Z,19.07
2024-01-15T08:48:37.289Z,18.90
2024-01-15T08:51:06.615Z,18.47
2024-01-15T08:53:37.313Z,19.17
2024-01-15T08:56:07.113Z,17.75
2024-01-15T08:58:36.872Z,16.50
2024-01-15T09:01:06.930Z,19.10
2024-01-15T09:03:42.463Z,17.23
2024-01-15T09:06:17.159Z,15.97
2024-01-15T09:08:46.830Z,12.20
2024-01-15T09:11:16.742Z,16.85
2024-01-15T09:13:45.869Z,13.70
2024-01-15T09:16:17.645Z,13.93
2024-01-15T09:18:47.767Z,12.47
2024-01-15T09:21:18.038Z,11.20
2024-01-15T09:23:47.560Z,12.87
2024-01-15T09:26:20.699Z,13.17
2024-01-15T09:31:20.675Z,15.23
2024-01-15T09:33:56.807Z,12.03
2024-01-15T09:36:26.363Z,11.27
2024-01-15T09:38:55.524Z,12.67
2024-01-15T09:41:26.051Z,12.67
2024-01-15T09:43:58.065Z,11.83
2024-01-15T09:46:32.037Z,11.75
2024-01-15T09:49:02.568Z,13.83
2024-01-15T09:51:33.421Z,12.20
2024-01-15T09:54:04.782Z,12.10
2024-01-15T09:56:35.305Z,14.07
2024-01-15T09:59:05.145Z,13.03
2024-01-15T10:01:41.755Z,11.07
2024-01-15T10:04:10.868Z,12.23
2024-01-15T10:06:46.220Z,12.27
2024-01-15T10:09:19.220Z,15.77
2024-01-15T10:11:50.958Z,12.57
2024-01-15T10:14:21.718Z,11.87
2024-01-15T10:16:51.409Z,14.30
2024-01-15T10:19:20.486Z,10.27
2024-01-15T10:21:56.135Z,11.40
2024-01-15T10:24:30.837Z,13.27
2024-01-15T10:27:08.480Z,13.15
2024-01-15T10:29:38.295Z,13.83
2024-01-15T10:32:28.352Z,13.00
2024-01-15T10:34:58.277Z,13.53
2024-01-15T10:37:29.361Z,15.37
2024-01-15T10:39:59.205Z,18.90
2024-01-15T10:42:28.568Z,11.37
2024-01-15T10:45:01.252Z,14.63
2024-01-15T10:47:31.381Z,12.03
2024-01-15T10:50:02.909Z,11.93
2024-01-15T10:52:33.112Z,13.80
2024-01-15T10:55:11.098Z,10.20
2024-01-15T10:57:47.753Z,11.27
2024-01-15T11:00:37.966Z,13.43
2024-01-15T11:03:08.639Z,11.87
2024-01-15T11:05:43.155Z,13.93
2024-01-15T11:08:12.869Z,13.28
2024-01-15T11:10:46.395Z,14.40
2024-01-15T11:13:21.532Z,10.00
2024-01-15T11:16:04.007Z,14.30
2024-01-15T11:18:40.257Z,12.57
2024-01-15T11:21:26.729Z,13.10
2024-01-15T11:23:58.077Z,11.15
2024-01-15T11:26:34.469Z,12.13
2024-01-15T11:29:06.595Z,12.50
2024-01-15T11:32:01.875Z,19.03
2024-01-15T11:34:52.657Z,15.43
2024-01-15T11:37:27.334Z,11.27
2024-01-15T11:39:57.396Z,11.88
2024-01-15T11:42:29.586Z,15.40
2024-01-15T11:44:58.657Z,15.83
2024-01-15T11:47:57.859Z,13.27
2024-01-15T11:50:33.230Z,12.43
2024-01-15T11:53:07.052Z,13.23
2024-01-15T11:55:46.505Z,12.63
2024-01-15T11:58:16.801Z,12.63
2024-01-15T12:00:55.691Z,13.70
2024-01-15T12:03:27.589Z,13.20
2024-01-15T12:05:58.647Z,15.50
2024-01-15T12:08:29.911Z,16.20
2024-01-15T12:10:59.287Z,14.13
2024-01-15T12:13:29.281Z,16.40
2024-01-15T12:15:58.989Z,12.90
2024-01-15T12:18:29.499Z,14.23
2024-01-15T12:20:59.690Z,16.40
2024-01-15T12:23:29.705Z,13.45
2024-01-15T12:25:59.105Z,14.47
2024-01-15T12:28:30.171Z,15.83
2024-01-15T12:31:05.872Z,14.30
2024-01-15T12:33:36.351Z,20.20
2024-01-15T12:36:08.078Z,18.70
2024-01-15T12:38:37.120Z,16.67
2024-01-15T12:41:07.821Z,14.20
2024-01-15T12:43:36.975Z,14.37
2024-01-15T12:46:06.533Z,17.43
2024-01-15T12:48:36.553Z,16.10
2024-01-15T12:51:09.262Z,20.15
2024-01-15T12:53:38.754Z,16.83
2024-01-15T12:56:08.459Z,19.90
2024-01-15T12:58:37.416Z,18.37
2024-01-15T13:01:06.971Z,17.07
2024-01-15T13:03:36.455Z,17.13
2024-01-15T13:06:06.494Z,17.50
2024-01-15T13:08:35.777Z,16.10
2024-01-15T13:11:05.292Z,15.87
2024-01-15T13:13:38.663Z,21.07
2024-01-15T13:16:09.323Z,19.20
2024-01-15T13:18:38.462Z,18.90
2024-01-15T13:21:07.724Z,16.63
2024-01-15T13:23:38.029Z,19.23
2024-01-15T13:26:07.749Z,18.70
2024-01-15T13:28:36.653Z,19.47
2024-01-15T13:31:05.933Z,22.07
2024-01-15T13:33:35.707Z,15.77
2024-01-15T13:36:08.815Z,20.80
2024-01-15T13:38:40.340Z,17.67
2024-01-15T13:41:15.891Z,17.90
2024-01-15T13:43:44.775Z,19.10
2024-01-15T13:46:13.568Z,17.87
2024-01-15T13:48:43.117Z,16.97
2024-01-15T13:51:12.199Z,17.10
2024-01-15T13:53:41.536Z,17.27
2024-01-15T13:56:11.231Z,17.50
2024-01-15T13:58:40.626Z,19.67
2024-01-15T14:01:18.250Z,16.03
2024-01-15T14:03:53.145Z,19.37
2024-01-15T14:06:25.836Z,16.87
2024-01-15T14:08:55.998Z,19.23
2024-01-15T14:11:25.250Z,19.83
2024-01-15T14:13:54.172Z,22.40
2024-01-15T14:16:26.048Z,19.70
2024-01-15T14:18:56.592Z,25.57
2024-01-15T14:21:26.519Z,18.83
2024-01-15T14:23:55.534Z,27.20
2024-01-15T14:26:24.750Z,23.50
2024-01-15T14:28:53.811Z,24.50
2024-01-15T14:31:27.079Z,21.07
2024-01-15T14:33:56.277Z,20.43
2024-01-15T14:36:26.837Z,22.37
2024-01-15T14:38:55.608Z,19.10
2024-01-15T14:41:25.394Z,22.20
2024-01-15T14:43:55.312Z,20.03
2024-01-15T14:46:24.473Z,19.47
2024-01-15T14:48:54.012Z,19.90
2024-01-15T14:51:24.783Z,16.87
2024-01-15T14:53:54.170Z,18.20
2024-01-15T14:56:24.012Z,18.07
2024-01-15T14:58:58.070Z,23.10
2024-01-15T15:01:27.190Z,15.83
2024-01-15T15:03:59.249Z,19.07
2024-01-15T15:06:28.555Z,22.83
2024-01-15T15:09:00.061Z,20.10
2024-01-15T15:11:29.939Z,21.23
2024-01-15T15:14:01.036Z,22.80
2024-01-15T15:16:33.548Z,22.55
2024-01-15T15:19:02.955Z,18.43
2024-01-15T15:21:32.421Z,21.40
2024-01-15T15:24:04.534Z,18.13
2024-01-15T15:26:34.100Z,18.33
2024-01-15T15:29:04.191Z,26.87
2024-01-15T15:31:36.783Z,18.23
2024-01-15T15:34:06.692Z,21.93
2024-01-15T15:36:36.639Z,17.87
2024-01-15T15:39:08.361Z,18.37
2024-01-15T15:41:38.806Z,15.87
2024-01-15T15:44:15.450Z,20.60
2024-01-15T15:46:45.028Z,20.23
2024-01-15T15:49:16.975Z,18.03
2024-01-15T15:51:46.402Z,17.93
2024-01-15T15:54:15.577Z,19.33
2024-01-15T15:56:48.339Z,15.80
2024-01-15T15:59:25.168Z,22.70
2024-01-15T16:01:54.475Z,20.27
2024-01-15T16:04:24.720Z,18.80
2024-01-15T16:06:54.677Z,21.70
2024-01-15T16:09:27.387Z,18.20
2024-01-15T16:11:57.076Z,19.00
2024-01-15T16:14:27.098Z,19.37
2024-01-15T16:23:13.432Z,20.33
2024-01-15T16:23:27.949Z,18.60
2024-01-15T16:23:43.688Z,22.67
2024-01-15T16:25:38.778Z,18.17
2024-01-15T16:28:15.596Z,20.87
2024-01-15T16:30:52.804Z,22.07
2024-01-15T16:33:30.230Z,17.50
2024-01-15T16:36:03.121Z,18.37
2024-01-15T16:38:34.506Z,17.30
2024-01-15T16:41:06.413Z,19.60
2024-01-15T16:43:35.996Z,17.97
2024-01-15T16:46:12.941Z,17.40
2024-01-15T16:48:45.874Z,17.97
2024-01-15T16:51:17.698Z,19.20
2024-01-15T16:53:47.322Z,28.97
2024-01-15T16:56:18.753Z,18.30
2024-01-15T16:58:49.683Z,17.50
2024-01-15T17:01:20.660Z,20.27
2024-01-15T17:03:50.061Z,20.00
2024-01-15T17:06:19.362Z,17.43
2024-01-15T17:08:48.687Z,19.30
2024-01-15T17:11:28.599Z,22.47
2024-01-15T17:14:02.062Z,18.47
2024-01-15T17:16:35.233Z,20.67
2024-01-15T17:19:08.036Z,21.97
2024-01-15T17:21:41.968Z,22.77
2024-01-15T17:24:11.650Z,22.50
2024-01-15T17:26:40.809Z,20.07
2024-01-15T17:29:10.284Z,19.47
2024-01-15T17:31:42.928Z,20.93
2024-01-15T17:34:12.101Z,19.47
2024-01-15T17:36:47.235Z,24.97
2024-01-15T17:39:20.684Z,27.10
2024-01-15T17:41:51.666Z,21.13
2024-01-15T17:44:28.404Z,22.50
2024-01-15T17:46:57.397Z,24.87
2024-01-15T17:49:28.732Z,23.63
2024-01-15T17:51:58.769Z,23.43
2024-01-15T17:54:31.707Z,26.80
2024-01-15T17:57:02.780Z,23.70
2024-01-15T17:59:33.925Z,26.63
2024-01-15T18:02:03.725Z,30.03
2024-01-15T18:04:33.526Z,28.57
2024-01-15T18:07:04.651Z,27.40
2024-01-15T18:09:34.877Z,25.90
2024-01-15T18:12:05.351Z,27.13
2024-01-15T18:14:34.746Z,24.47
2024-01-15T18:17:07.016Z,19.63
2024-01-15T18:19:37.458Z,22.70
2024-01-15T18:22:06.590Z,25.23
2024-01-15T18:24:37.710Z,25.53
2024-01-15T18:27:09.409Z,25.00
2024-01-15T18:29:38.979Z,23.50
2024-01-15T18:32:10.850Z,22.30
2024-01-15T18:34:42.347Z,22.23
2024-01-15T18:37:18.364Z,17.00
2024-01-15T18:39:48.041Z,18.60
2024-01-15T18:42:17.642Z,17.30
2024-01-15T18:44:51.595Z,10.77
2024-01-15T18:47:21.428Z,12.88
2024-01-15T18:49:53.056Z,9.03
2024-01-15T18:52:22.014Z,11.07
2024-01-15T18:54:50.850Z,10.20
2024-01-15T18:57:20.147Z,11.73
2024-01-15T18:59:53.767Z,9.23
2024-01-15T19:02:26.781Z,9.30
2024-01-15T19:04:57.262Z,8.10
2024-01-15T19:07:30.293Z,7.90
2024-01-15T19:10:03.027Z,13.47
2024-01-15T19:12:32.850Z,9.03
2024-01-15T19:15:11.692Z,10.30
2024-01-15T19:17:40.942Z,9.80
2024-01-15T19:20:12.379Z,9.93
2024-01-15T19:22:41.447Z,7.70
2024-01-15T19:25:13.638Z,9.67
2024-01-15T19:27:45.415Z,12.07
2024-01-15T19:30:17.194Z,8.23
2024-01-15T19:32:47.384Z,8.23
2024-01-15T19:35:17.015Z,11.33
2024-01-15T19:37:45.910Z,10.47
2024-01-15T19:40:18.067Z,6.83
2024-01-15T19:42:47.233Z,6.80
2024-01-15T19:45:16.428Z,8.43
2024-01-15T19:47:45.752Z,11.00
2024-01-15T19:50:15.129Z,8.57
2024-01-15T19:52:44.366Z,6.97
2024-01-15T19:55:14.644Z,6.53
2024-01-15T19:57:44.340Z,8.00
2024-01-15T20:00:19.468Z,8.27
2024-01-15T20:02:51.370Z,7.87
2024-01-15T20:05:25.370Z,8.27
2024-01-15T20:10:37.693Z,6.13
2024-01-15T20:13:07.337Z,8.73
2024-01-15T20:15:38.959Z,9.43
2024-01-15T20:18:09.204Z,6.20
2024-01-15T20:20:38.327Z,8.20
2024-01-15T20:23:09.873Z,5.73
2024-01-15T20:25:39.263Z,8.93
2024-01-15T20:28:14.201Z,6.10
2024-01-15T20:30:44.835Z,6.60
2024-01-15T20:33:14.183Z,9.37
2024-01-15T20:35:47.066Z,6.87
2024-01-15T20:38:16.460Z,8.27
2024-01-15T20:40:46.319Z,8.53
2024-01-15T20:43:31.913Z,7.20
2024-01-15T20:46:12.414Z,11.97
2024-01-15T20:48:43.021Z,8.27
2024-01-15T20:51:18.771Z,5.57
2024-01-15T20:53:49.813Z,7.23
2024-01-15T20:56:18.843Z,8.07
2024-01-15T20:58:48.042Z,9.97
2024-01-15T21:01:19.616Z,8.00
2024-01-15T21:03:53.818Z,8.53
2024-01-15T21:08:53.142Z,8.97
2024-01-15T21:11:22.440Z,11.37
2024-01-15T21:13:52.142Z,8.70
2024-01-15T21:16:21.304Z,7.53
2024-01-15T21:18:52.861Z,10.17
2024-01-15T21:21:24.655Z,14.17
2024-01-15T21:23:54.030Z,7.30
2024-01-15T21:26:23.646Z,9.47
2024-01-15T21:28:53.158Z,8.10
2024-01-15T21:31:22.159Z,7.43
2024-01-15T21:33:51.290Z,6.80
2024-01-15T21:36:22.263Z,9.13
2024-01-15T21:38:55.254Z,8.90
2024-01-15T21:41:24.810Z,11.90
2024-01-15T21:44:00.296Z,8.87
2024-01-15T21:46:31.913Z,5.73
2024-01-15T21:49:01.212Z,9.37
2024-01-15T21:51:31.162Z,9.27
2024-01-15T21:54:03.580Z,11.63
2024-01-15T21:56:33.681Z,9.20
2024-01-15T21:59:03.365Z,7.50
2024-01-15T22:01:33.254Z,11.07
2024-01-15T22:04:02.430Z,11.43
2024-01-15T22:06:37.609Z,13.10
2024-01-15T22:09:07.290Z,12.27
2024-01-15T22:11:37.514Z,8.83
2024-01-15T22:14:06.485Z,10.23
2024-01-15T22:16:37.895Z,7.30
2024-01-15T22:19:08.343Z,9.60
2024-01-15T22:21:44.035Z,6.97
2024-01-15T22:24:15.915Z,5.65
2024-01-15T22:26:45.332Z,5.90
2024-01-15T22:29:14.686Z,5.30
2024-01-15T22:31:44.152Z,9.23
2024-01-15T22:34:18.172Z,8.83
2024-01-15T22:36:49.293Z,6.90
2024-01-15T22:39:22.987Z,5.73
2024-01-15T22:41:51.816Z,4.70
2024-01-15T22:44:23.834Z,4.10
2024-01-15T22:46:56.422Z,8.77
2024-01-15T22:49:27.304Z,7.03
2024-01-15T22:51:56.295Z,4.10
2024-01-15T22:54:25.469Z,7.27
2024-01-15T22:56:54.271Z,5.10
2024-01-15T22:59:23.733Z,5.03
2024-01-15T23:01:52.887Z,5.27
2024-01-15T23:04:33.294Z,5.40
2024-01-15T23:07:06.014Z,7.13
2024-01-15T23:09:44.135Z,5.47
2024-01-15T23:12:16.015Z,5.60
2024-01-15T23:14:45.071Z,8.13
2024-01-15T23:17:14.432Z,5.07
2024-01-15T23:19:43.423Z,4.67
2024-01-15T23:22:13.168Z,5.97
2024-01-15T23:24:42.185Z,4.73
2024-01-15T23:27:11.148Z,6.83
2024-01-15T23:29:43.298Z,3.10
2024-01-15T23:32:15.839Z,5.20
2024-01-15T23:34:44.842Z,6.50
2024-01-15T23:37:16.953Z,5.40
2024-01-15T23:39:51.277Z,4.13
2024-01-15T23:42:20.626Z,4.83
2024-01-15T23:44:51.723Z,5.30
2024-01-15T23:47:23.051Z,5.00
2024-01-15T23:49:52.017Z,4.53
2024-01-15T23:52:20.999Z,4.53
2024-01-15T23:54:50.416Z,6.67
2024-01-15T23:57:23.002Z,4.00
2024-01-15T23:59:55.983Z,7.83
